createdAt,value
2023-04-24T00:00:58.410Z,94630.66
2023-04-24T00:03:29.059Z,94639.84
2023-04-24T00:05:57.348Z,94635.88
2023-04-24T00:08:25.300Z,94631.75
2023-04-24T00:10:53.730Z,94634.44
2023-04-24T00:13:21.684Z,94635.53
2023-04-24T00:15:51.027Z,94636.31
2023-04-24T00:18:19.380Z,94638.69
2023-04-24T00:20:47.443Z,94637.66
2023-04-24T00:23:15.539Z,94646.00
2023-04-24T00:25:43.430Z,94644.88
2023-04-24T00:28:11.419Z,94643.31
2023-04-24T00:30:39.463Z,94636.44
2023-04-24T00:33:08.792Z,94642.81
2023-04-24T00:35:36.734Z,94641.72
2023-04-24T00:38:04.764Z,94641.72
2023-04-24T00:40:32.709Z,94640.63
2023-04-24T00:43:00.697Z,94640.13
2023-04-24T00:45:28.739Z,94636.19
2023-04-24T00:47:56.868Z,94646.34
2023-04-24T00:50:26.413Z,94641.16
2023-04-24T00:52:54.795Z,94640.06
2023-04-24T00:55:22.924Z,94646.78
2023-04-24T00:57:51.850Z,94638.00
2023-04-24T01:00:20.608Z,94632.84
2023-04-24T01:02:49.702Z,94635.88
2023-04-24T01:05:18.363Z,94637.91
2023-04-24T01:07:50.084Z,94636.66
2023-04-24T01:10:19.197Z,94641.78
2023-04-24T01:12:48.249Z,94643.28
2023-04-24T01:15:16.532Z,94641.72
2023-04-24T01:17:44.481Z,94638.06
2023-04-24T01:20:12.826Z,94638.72
2023-04-24T01:22:44.259Z,94641.16
2023-04-24T01:25:12.265Z,94633.94
2023-04-24T01:27:40.189Z,94644.84
2023-04-24T01:30:09.624Z,94649.91
2023-04-24T01:32:38.492Z,94649.13
2023-04-24T01:35:07.913Z,94642.13
2023-04-24T01:37:38.186Z,94644.41
2023-04-24T01:40:09.453Z,94647.75
2023-04-24T01:42:37.766Z,94644.09
2023-04-24T01:45:07.261Z,94647.25
2023-04-24T01:47:35.267Z,94650.41
2023-04-24T01:50:03.295Z,94646.00
2023-04-24T01:52:32.304Z,94650.41
2023-04-24T01:55:02.035Z,94639.50
2023-04-24T01:57:32.455Z,94633.16
2023-04-24T02:00:00.602Z,94635.78
2023-04-24T02:02:31.105Z,94634.25
2023-04-24T02:04:59.243Z,94642.22
2023-04-24T02:07:27.247Z,94639.97
2023-04-24T02:09:56.474Z,94638.88
2023-04-24T02:12:24.411Z,94639.97
2023-04-24T02:14:54.560Z,94643.47
2023-04-24T02:17:22.776Z,94646.63
2023-04-24T02:19:50.937Z,94640.13
2023-04-24T02:22:18.836Z,94645.59
2023-04-24T02:24:46.797Z,94647.66
2023-04-24T02:27:17.330Z,94637.28
2023-04-24T02:29:46.063Z,94641.25
2023-04-24T02:32:16.812Z,94643.78
2023-04-24T02:34:45.358Z,94641.56
2023-04-24T02:37:14.189Z,94647.81
2023-04-24T02:39:42.235Z,94654.06
2023-04-24T02:42:10.820Z,94643.63
2023-04-24T02:44:38.849Z,94650.91
2023-04-24T02:47:06.802Z,94639.97
2023-04-24T02:49:36.170Z,94652.97
2023-04-24T02:52:04.138Z,94648.22
2023-04-24T02:54:32.127Z,94651.44
2023-04-24T02:57:00.044Z,94660.56
2023-04-24T02:59:29.892Z,94668.44
2023-04-24T03:01:57.845Z,94685.16
2023-04-24T03:04:26.092Z,94678.72
2023-04-24T03:06:55.796Z,94677.66
2023-04-24T03:09:23.901Z,94679.16
2023-04-24T03:11:52.079Z,94681.41
2023-04-24T03:14:20.190Z,94677.28
2023-04-24T03:16:48.242Z,94682.22
2023-04-24T03:19:16.326Z,94680.19
2023-04-24T03:21:57.261Z,94679.03
2023-04-24T03:24:25.978Z,94673.44
2023-04-24T03:26:53.962Z,94674.63
2023-04-24T03:29:44.827Z,94661.69
2023-04-24T03:32:13.386Z,94654.06
2023-04-24T03:34:41.638Z,94659.16
2023-04-24T03:37:14.256Z,94665.94
2023-04-24T03:39:47.167Z,94657.25
2023-04-24T03:42:16.621Z,94654.84
2023-04-24T03:44:52.496Z,94654.84
2023-04-24T03:47:24.428Z,94655.00
2023-04-24T03:49:55.480Z,94650.56
2023-04-24T03:52:24.849Z,94665.22
2023-04-24T03:54:53.109Z,94652.47
2023-04-24T03:57:21.223Z,94644.88
2023-04-24T04:00:05.266Z,94650.09
2023-04-24T04:02:42.681Z,94643.78
2023-04-24T04:05:11.530Z,94642.75
2023-04-24T04:07:40.904Z,94652.63
2023-04-24T04:10:10.054Z,94654.78
2023-04-24T04:12:39.098Z,94651.06
2023-04-24T04:15:08.094Z,94653.59
2023-04-24T04:17:36.607Z,94649.00
2023-04-24T04:20:10.988Z,94649.00
2023-04-24T04:22:44.343Z,94648.19
2023-04-24T04:25:16.912Z,94650.03
2023-04-24T04:27:45.131Z,94640.44
2023-04-24T04:30:15.238Z,94652.31
2023-04-24T04:32:50.677Z,94647.34
2023-04-24T04:35:18.910Z,94651.44
2023-04-24T04:37:48.478Z,94655.94
2023-04-24T04:40:39.263Z,94660.50
2023-04-24T04:43:08.220Z,94668.16
2023-04-24T04:45:44.374Z,94665.38
2023-04-24T04:48:32.416Z,94678.31
2023-04-24T04:51:02.423Z,94685.16
2023-04-24T04:53:32.161Z,94668.59
2023-04-24T04:56:00.602Z,94683.53
2023-04-24T04:58:35.267Z,94680.72
2023-04-24T05:01:04.488Z,94678.22
2023-04-24T05:03:37.978Z,94679.81
2023-04-24T05:06:10.472Z,94691.97
2023-04-24T05:08:42.073Z,94694.34
2023-04-24T05:11:14.515Z,94698.91
2023-04-24T05:13:43.278Z,94706.75
2023-04-24T05:16:17.114Z,94710.84
2023-04-24T05:18:45.147Z,94718.34
2023-04-24T05:21:16.226Z,94722.09
2023-04-24T05:23:49.971Z,94730.84
2023-04-24T05:26:25.637Z,94731.56
2023-04-24T05:28:53.798Z,94736.63
2023-04-24T05:31:22.466Z,94738.44
2023-04-24T05:33:51.670Z,94747.63
2023-04-24T05:36:19.701Z,94744.13
2023-04-24T05:38:49.829Z,94748.88
2023-04-24T05:41:17.880Z,94759.03
2023-04-24T05:43:45.818Z,94753.78
2023-04-24T05:46:14.052Z,94754.69
2023-04-24T05:48:41.940Z,94757.38
2023-04-24T05:51:09.837Z,94758.53
2023-04-24T05:53:37.897Z,94760.09
2023-04-24T05:56:07.879Z,94775.09
2023-04-24T05:58:38.424Z,94770.34
2023-04-24T06:01:07.068Z,94776.50
2023-04-24T06:03:35.694Z,94787.88
2023-04-24T06:06:06.208Z,94789.81
2023-04-24T06:08:35.393Z,94794.25
2023-04-24T06:11:04.777Z,94782.69
2023-04-24T06:13:35.410Z,94789.50
2023-04-24T06:16:21.890Z,94784.28
2023-04-24T06:18:56.501Z,94792.69
2023-04-24T06:21:24.488Z,94796.50
2023-04-24T06:23:52.369Z,94797.75
2023-04-24T06:26:20.985Z,94804.97
2023-04-24T06:28:51.388Z,94810.53
2023-04-24T06:31:20.880Z,94810.06
2023-04-24T06:33:48.764Z,94821.06
2023-04-24T06:36:16.916Z,94813.44
2023-04-24T06:38:44.797Z,94828.66
2023-04-24T06:41:12.859Z,94820.81
2023-04-24T06:43:41.112Z,94831.72
2023-04-24T06:46:10.717Z,94833.63
2023-04-24T06:48:38.718Z,94823.53
2023-04-24T06:51:06.938Z,94828.94
2023-04-24T06:53:34.971Z,94842.19
2023-04-24T06:56:02.863Z,94836.97
2023-04-24T06:58:32.510Z,94842.66
2023-04-24T07:01:00.432Z,94859.06
2023-04-24T07:03:29.858Z,94855.94
2023-04-24T07:05:58.909Z,94854.81
2023-04-24T07:08:27.017Z,94856.81
2023-04-24T07:10:54.939Z,94859.28
2023-04-24T07:13:22.987Z,94860.41
2023-04-24T07:15:51.965Z,94868.78
2023-04-24T07:18:20.012Z,94869.25
2023-04-24T07:20:51.155Z,94877.47
2023-04-24T07:23:19.467Z,94879.50
2023-04-24T07:25:47.839Z,94885.88
2023-04-24T07:28:15.747Z,94889.03
2023-04-24T07:30:43.748Z,94893.81
2023-04-24T07:33:14.170Z,94897.63
2023-04-24T07:35:42.189Z,94891.97
2023-04-24T07:38:12.041Z,94900.34
2023-04-24T07:40:39.964Z,94904.00
2023-04-24T07:43:07.885Z,94901.03
2023-04-24T07:45:38.138Z,94912.88
2023-04-24T07:48:06.410Z,94915.00
2023-04-24T07:50:34.501Z,94911.00
2023-04-24T07:53:02.451Z,94909.22
2023-04-24T07:55:31.733Z,94920.13
2023-04-24T07:57:59.650Z,94922.63
2023-04-24T08:00:27.662Z,94916.84
2023-04-24T08:02:55.751Z,94930.09
2023-04-24T08:05:24.302Z,94931.66
2023-04-24T08:07:52.399Z,94937.88
2023-04-24T08:10:20.280Z,94931.47
2023-04-24T08:12:49.573Z,94934.66
2023-04-24T08:15:17.534Z,94940.44
2023-04-24T08:17:45.597Z,94943.53
2023-04-24T08:20:15.427Z,94949.59
2023-04-24T08:22:43.627Z,94943.53
2023-04-24T08:25:12.242Z,94954.50
2023-04-24T08:27:40.924Z,94953.88
2023-04-24T08:30:11.100Z,94958.16
2023-04-24T08:32:39.572Z,94953.94
2023-04-24T08:35:10.152Z,94957.81
2023-04-24T08:37:38.249Z,94954.34
2023-04-24T08:40:13.978Z,94957.34
2023-04-24T08:42:43.056Z,94959.72
2023-04-24T08:45:13.841Z,94957.34
2023-04-24T08:47:43.257Z,94960.06
2023-04-24T08:50:13.535Z,94965.44
2023-04-24T08:52:41.608Z,94965.44
2023-04-24T08:55:10.163Z,94966.91
2023-04-24T08:57:41.090Z,94966.72
2023-04-24T09:00:11.990Z,94969.59
2023-04-24T09:02:45.129Z,94966.50
2023-04-24T09:05:14.893Z,94972.53
2023-04-24T09:07:46.784Z,94970.72
2023-04-24T09:10:15.170Z,94966.75
2023-04-24T09:12:43.770Z,94967.69
2023-04-24T09:15:13.137Z,94974.03
2023-04-24T09:17:42.413Z,94978.81
2023-04-24T09:20:10.820Z,94974.03
2023-04-24T09:22:39.031Z,94971.94
2023-04-24T09:25:09.094Z,94974.03
2023-04-24T09:27:37.418Z,94970.84
2023-04-24T09:30:06.133Z,94975.94
2023-04-24T09:32:34.199Z,94983.69
2023-04-24T09:35:12.473Z,94974.50
2023-04-24T09:37:42.418Z,94970.78
2023-04-24T09:40:14.784Z,94977.53
2023-04-24T09:42:46.150Z,94980.38
2023-04-24T09:45:15.618Z,94973.47
2023-04-24T09:47:44.747Z,94975.47
2023-04-24T09:50:20.701Z,94978.94
2023-04-24T09:53:06.990Z,94974.66
2023-04-24T09:55:35.164Z,94976.88
2023-04-24T09:58:06.239Z,94969.09
2023-04-24T10:00:35.114Z,94964.31
2023-04-24T10:03:04.917Z,94961.63
2023-04-24T10:05:36.796Z,94953.88
2023-04-24T10:08:06.492Z,94961.06
2023-04-24T10:10:35.929Z,94951.84
2023-04-24T10:13:04.968Z,94959.28
2023-04-24T10:15:33.390Z,94952.34
2023-04-24T10:18:01.797Z,94949.31
2023-04-24T10:20:32.136Z,94950.16
2023-04-24T10:23:02.242Z,94949.47
2023-04-24T10:25:33.181Z,94943.34
2023-04-24T10:28:02.347Z,94946.22
2023-04-24T10:30:31.686Z,94948.22
2023-04-24T10:32:59.615Z,94942.72
2023-04-24T10:35:27.916Z,94941.66
2023-04-24T10:37:59.611Z,94942.16
2023-04-24T10:40:32.336Z,94940.56
2023-04-24T10:43:00.320Z,94929.59
2023-04-24T10:45:28.496Z,94933.50
2023-04-24T10:48:00.565Z,94927.72
2023-04-24T10:50:30.323Z,94935.72
2023-04-24T10:53:08.487Z,94926.47
2023-04-24T10:55:46.511Z,94922.53
2023-04-24T10:58:15.878Z,94924.19
2023-04-24T11:00:45.760Z,94922.69
2023-04-24T11:03:28.722Z,94937.09
2023-04-24T11:06:01.961Z,94931.34
2023-04-24T11:08:38.287Z,94924.69
2023-04-24T11:11:14.026Z,94929.94
2023-04-24T11:14:09.542Z,94935.00
2023-04-24T11:16:41.686Z,94932.59
2023-04-24T11:19:12.960Z,94921.50
2023-04-24T11:21:45.601Z,94928.69
2023-04-24T11:24:31.744Z,94924.91
2023-04-24T11:27:07.757Z,94924.53
2023-04-24T11:29:47.404Z,94928.28
2023-04-24T11:32:27.345Z,94915.38
2023-04-24T11:34:56.805Z,94916.84
2023-04-24T11:37:26.197Z,94911.03
2023-04-24T11:39:55.662Z,94912.69
2023-04-24T11:42:26.512Z,94912.81
2023-04-24T11:44:56.538Z,94909.00
2023-04-24T11:47:31.095Z,94907.66
2023-04-24T11:50:00.516Z,94917.97
2023-04-24T11:52:29.398Z,94913.00
2023-04-24T11:54:57.783Z,94917.75
2023-04-24T11:57:29.992Z,94916.91
2023-04-24T11:59:57.977Z,94907.56
2023-04-24T12:02:27.477Z,94909.75
2023-04-24T12:04:56.420Z,94902.72
2023-04-24T12:07:25.950Z,94919.25
2023-04-24T12:09:59.426Z,94910.91
2023-04-24T12:12:29.905Z,94914.09
2023-04-24T12:14:59.599Z,94915.19
2023-04-24T12:17:30.107Z,94913.38
2023-04-24T12:20:03.280Z,94907.34
2023-04-24T12:22:46.534Z,94911.50
2023-04-24T12:25:14.860Z,94907.41
2023-04-24T12:27:44.337Z,94906.53
2023-04-24T12:30:15.338Z,94907.59
2023-04-24T12:32:44.541Z,94902.78
2023-04-24T12:35:12.591Z,94912.19
2023-04-24T12:37:40.706Z,94908.50
2023-04-24T12:40:10.618Z,94911.50
2023-04-24T12:42:45.997Z,94901.56
2023-04-24T12:45:14.773Z,94910.13
2023-04-24T12:47:44.621Z,94905.09
2023-04-24T12:50:13.937Z,94918.41
2023-04-24T12:52:42.572Z,94912.72
2023-04-24T12:55:12.944Z,94906.84
2023-04-24T12:57:42.024Z,94901.16
2023-04-24T13:00:12.274Z,94904.56
2023-04-24T13:02:40.922Z,94908.97
2023-04-24T13:05:09.671Z,94911.41
2023-04-24T13:07:37.524Z,94900.59
2023-04-24T13:10:06.011Z,94901.09
2023-04-24T13:12:34.058Z,94905.72
2023-04-24T13:15:01.991Z,94897.41
2023-04-24T13:17:31.752Z,94909.50
2023-04-24T13:19:59.677Z,94900.63
2023-04-24T13:22:28.303Z,94896.97
2023-04-24T13:24:57.243Z,94895.94
2023-04-24T13:27:25.195Z,94892.75
2023-04-24T13:29:53.269Z,94888.50
2023-04-24T13:32:21.323Z,94885.22
2023-04-24T13:34:50.856Z,94880.06
2023-04-24T13:37:18.902Z,94868.03
2023-04-24T13:39:46.789Z,94860.31
2023-04-24T13:42:14.871Z,94863.19
2023-04-24T13:44:42.833Z,94861.16
2023-04-24T13:47:10.828Z,94856.94
2023-04-24T13:49:38.751Z,94857.75
2023-04-24T13:52:08.366Z,94859.28
2023-04-24T13:54:36.386Z,94845.84
2023-04-24T13:57:05.080Z,94842.19
2023-04-24T13:59:32.983Z,94846.41
2023-04-24T14:02:00.931Z,94832.44
2023-04-24T14:04:29.114Z,94834.25
2023-04-24T14:06:57.416Z,94828.22
2023-04-24T14:09:26.687Z,94826.91
2023-04-24T14:11:54.658Z,94820.97
2023-04-24T14:14:22.578Z,94816.09
2023-04-24T14:16:50.584Z,94812.56
2023-04-24T14:19:18.498Z,94815.47
2023-04-24T14:21:46.410Z,94816.78
2023-04-24T14:24:14.372Z,94814.97
2023-04-24T14:26:43.760Z,94809.56
2023-04-24T14:29:15.094Z,94808.03
2023-04-24T14:31:43.617Z,94810.22
2023-04-24T14:34:11.651Z,94805.06
2023-04-24T14:36:39.842Z,94808.84
2023-04-24T14:39:08.635Z,94803.09
2023-04-24T14:41:38.120Z,94799.47
2023-04-24T14:44:07.445Z,94792.66
2023-04-24T14:46:35.771Z,94793.19
2023-04-24T14:49:03.817Z,94793.22
2023-04-24T14:51:32.203Z,94793.16
2023-04-24T14:54:00.702Z,94787.44
2023-04-24T14:56:28.648Z,94792.44
2023-04-24T14:58:57.469Z,94782.66
2023-04-24T15:01:26.910Z,94783.72
2023-04-24T15:03:55.228Z,94784.78
2023-04-24T15:06:23.378Z,94789.00
2023-04-24T15:08:51.325Z,94793.72
2023-04-24T15:11:19.646Z,94788.97
2023-04-24T15:13:47.975Z,94788.41
2023-04-24T15:16:16.621Z,94796.38
2023-04-24T15:18:46.250Z,94796.38
2023-04-24T15:21:14.303Z,94792.63
2023-04-24T15:23:42.278Z,94798.97
2023-04-24T15:26:10.183Z,94793.22
2023-04-24T15:28:38.068Z,94788.94
2023-04-24T15:31:06.039Z,94791.06
2023-04-24T15:33:33.912Z,94797.09
2023-04-24T15:36:03.226Z,94800.06
2023-04-24T15:38:31.341Z,94792.41
2023-04-24T15:40:59.328Z,94796.34
2023-04-24T15:43:27.258Z,94797.34
2023-04-24T15:45:55.199Z,94790.00
2023-04-24T15:48:23.139Z,94798.44
2023-04-24T15:50:51.085Z,94801.09
2023-04-24T15:53:22.612Z,94803.72
2023-04-24T15:55:51.488Z,94797.94
2023-04-24T15:58:20.400Z,94793.72
2023-04-24T16:00:48.792Z,94797.69
2023-04-24T16:03:16.888Z,94788.88
2023-04-24T16:05:44.864Z,94782.94
2023-04-24T16:08:14.213Z,94778.72
2023-04-24T16:10:44.254Z,94788.56
2023-04-24T16:13:12.321Z,94780.22
2023-04-24T16:15:41.362Z,94787.88
2023-04-24T16:18:09.383Z,94783.22
2023-04-24T16:20:37.360Z,94797.44
2023-04-24T16:23:05.442Z,94793.47
2023-04-24T16:25:33.503Z,94800.31
2023-04-24T16:28:03.206Z,94802.72
2023-04-24T16:30:31.822Z,94797.94
2023-04-24T16:32:59.777Z,94801.38
2023-04-24T16:35:27.843Z,94803.72
2023-04-24T16:37:55.775Z,94792.66
2023-04-24T16:40:23.707Z,94790.56
2023-04-24T16:42:52.774Z,94802.63
2023-04-24T16:45:22.144Z,94798.91
2023-04-24T16:47:50.102Z,94799.66
2023-04-24T16:50:18.085Z,94801.00
2023-04-24T16:52:45.957Z,94793.13
2023-04-24T16:55:13.876Z,94799.38
2023-04-24T16:57:41.858Z,94793.53
2023-04-24T17:00:11.177Z,94788.84
2023-04-24T17:02:40.720Z,94789.66
2023-04-24T17:05:09.616Z,94788.06
2023-04-24T17:07:37.740Z,94789.75
2023-04-24T17:10:08.329Z,94788.81
2023-04-24T17:12:36.360Z,94800.50
2023-04-24T17:15:04.648Z,94797.78
2023-04-24T17:17:32.556Z,94795.81
2023-04-24T17:20:11.569Z,94794.56
2023-04-24T17:22:49.014Z,94794.63
2023-04-24T17:25:16.954Z,94789.81
2023-04-24T17:27:45.539Z,94796.66
2023-04-24T17:30:14.733Z,94806.06
2023-04-24T17:32:43.012Z,94801.78
2023-04-24T17:35:12.814Z,94809.53
2023-04-24T17:37:40.964Z,94807.41
2023-04-24T17:40:10.065Z,94798.44
2023-04-24T17:42:41.461Z,94805.81
2023-04-24T17:45:10.787Z,94799.53
2023-04-24T17:47:38.751Z,94801.06
2023-04-24T17:50:07.583Z,94799.06
2023-04-24T17:52:36.868Z,94796.91
2023-04-24T17:55:05.226Z,94796.41
2023-04-24T17:57:33.195Z,94794.78
2023-04-24T18:00:01.106Z,94798.50
2023-04-24T18:02:29.094Z,94794.31
2023-04-24T18:04:57.141Z,94797.03
2023-04-24T18:07:25.153Z,94799.69
2023-04-24T18:09:56.234Z,94798.13
2023-04-24T18:12:24.430Z,94810.72
2023-04-24T18:14:57.278Z,94804.38
2023-04-24T18:17:34.446Z,94811.63
2023-04-24T18:20:02.439Z,94811.88
2023-04-24T18:22:30.507Z,94812.66
2023-04-24T18:24:59.829Z,94817.34
2023-04-24T18:27:30.923Z,94823.59
2023-04-24T18:29:59.328Z,94830.69
2023-04-24T18:32:28.096Z,94816.75
2023-04-24T18:34:56.191Z,94822.16
2023-04-24T18:37:24.074Z,94822.22
2023-04-24T18:39:52.036Z,94819.06
2023-04-24T18:42:21.348Z,94822.38
2023-04-24T18:44:49.789Z,94818.34
2023-04-24T18:47:17.715Z,94829.28
2023-04-24T18:49:45.931Z,94827.75
2023-04-24T18:52:13.809Z,94826.25
2023-04-24T18:54:42.041Z,94823.19
2023-04-24T18:57:09.994Z,94842.13
2023-04-24T18:59:39.277Z,94843.81
2023-04-24T19:02:07.387Z,94839.97
2023-04-24T19:04:35.446Z,94837.09
2023-04-24T19:07:03.369Z,94852.28
2023-04-24T19:09:31.283Z,94839.06
2023-04-24T19:12:00.193Z,94843.69
2023-04-24T19:14:28.155Z,94844.78
2023-04-24T19:16:57.586Z,94847.56
2023-04-24T19:19:26.201Z,94851.75
2023-04-24T19:21:54.192Z,94851.00
2023-04-24T19:24:22.222Z,94851.00
2023-04-24T19:26:50.088Z,94860.84
2023-04-24T19:29:18.011Z,94859.41
2023-04-24T19:31:45.905Z,94856.03
2023-04-24T19:34:15.256Z,94864.59
2023-04-24T19:36:43.573Z,94864.44
2023-04-24T19:39:11.670Z,94868.91
2023-04-24T19:41:40.084Z,94865.72
2023-04-24T19:44:08.171Z,94874.63
2023-04-24T19:46:36.197Z,94870.63
2023-04-24T19:49:04.284Z,94873.44
2023-04-24T19:51:33.609Z,94877.25
2023-04-24T19:54:01.946Z,94872.84
2023-04-24T19:56:29.845Z,94879.41
2023-04-24T19:58:57.846Z,94883.09
2023-04-24T20:01:25.922Z,94882.28
2023-04-24T20:03:54.012Z,94882.00
2023-04-24T20:06:21.986Z,94885.66
2023-04-24T20:08:51.483Z,94888.28
2023-04-24T20:11:19.653Z,94887.19
2023-04-24T20:13:47.570Z,94887.03
2023-04-24T20:16:15.761Z,94879.84
2023-04-24T20:18:44.733Z,94883.81
2023-04-24T20:21:12.613Z,94888.03
2023-04-24T20:23:40.597Z,94881.75
2023-04-24T20:26:11.391Z,94874.91
2023-04-24T20:28:39.744Z,94889.06
2023-04-24T20:31:07.668Z,94879.38
2023-04-24T20:33:37.988Z,94887.00
2023-04-24T20:36:06.099Z,94880.66
2023-04-24T20:38:34.121Z,94884.31
2023-04-24T20:41:02.007Z,94877.44
2023-04-24T20:43:31.462Z,94884.22
2023-04-24T20:45:59.414Z,94878.78
2023-04-24T20:48:27.676Z,94877.75
2023-04-24T20:50:55.957Z,94876.69
2023-04-24T20:53:24.359Z,94874.63
2023-04-24T20:55:52.373Z,94873.03
2023-04-24T20:58:21.071Z,94869.38
2023-04-24T21:00:50.625Z,94858.97
2023-04-24T21:03:18.660Z,94865.72
2023-04-24T21:05:46.977Z,94858.91
2023-04-24T21:08:14.955Z,94855.50
2023-04-24T21:10:42.938Z,94852.56
2023-04-24T21:13:10.874Z,94856.72
2023-04-24T21:15:39.033Z,94853.56
2023-04-24T21:18:08.434Z,94853.56
2023-04-24T21:20:36.582Z,94852.31
2023-04-24T21:23:04.494Z,94848.66
2023-04-24T21:25:32.951Z,94850.06
2023-04-24T21:28:01.320Z,94849.56
2023-04-24T21:30:30.084Z,94850.84
2023-04-24T21:32:58.830Z,94841.91
2023-04-24T21:35:28.139Z,94832.44
2023-04-24T21:37:56.011Z,94828.78
2023-04-24T21:40:23.996Z,94832.94
2023-04-24T21:42:52.944Z,94829.28
2023-04-24T21:45:21.349Z,94845.00
2023-04-24T21:47:49.360Z,94847.56
2023-04-24T21:50:17.398Z,94841.06
2023-04-24T21:52:46.792Z,94829.19
2023-04-24T21:55:14.837Z,94829.50
2023-04-24T21:57:42.785Z,94836.94
2023-04-24T22:00:13.504Z,94823.34
2023-04-24T22:02:43.105Z,94827.09
2023-04-24T22:05:15.638Z,94829.22
2023-04-24T22:07:46.701Z,94825.03
2023-04-24T22:10:18.045Z,94821.84
2023-04-24T22:12:46.011Z,94817.06
2023-04-24T22:15:14.001Z,94814.22
2023-04-24T22:17:42.033Z,94813.44
2023-04-24T22:20:11.337Z,94806.59
2023-04-24T22:22:40.033Z,94814.41
2023-04-24T22:25:08.791Z,94810.88
2023-04-24T22:27:38.060Z,94799.59
2023-04-24T22:30:08.877Z,94803.31
2023-04-24T22:32:37.261Z,94804.09
2023-04-24T22:35:05.620Z,94806.47
2023-04-24T22:37:33.672Z,94801.25
2023-04-24T22:40:01.618Z,94809.66
2023-04-24T22:42:30.564Z,94816.94
2023-04-24T22:44:59.864Z,94806.47
2023-04-24T22:47:27.824Z,94806.47
2023-04-24T22:49:57.578Z,94805.69
2023-04-24T22:52:26.023Z,94794.13
2023-04-24T22:54:53.975Z,94795.47
2023-04-24T22:57:21.941Z,94784.94
2023-04-24T22:59:49.888Z,94786.75
2023-04-24T23:02:19.218Z,94794.81
2023-04-24T23:04:48.377Z,94785.38
2023-04-24T23:07:16.770Z,94789.28
2023-04-24T23:09:44.662Z,94780.63
2023-04-24T23:12:12.740Z,94773.34
2023-04-24T23:14:40.690Z,94776.50
2023-04-24T23:17:08.619Z,94779.34
2023-04-24T23:19:37.864Z,94774.91
2023-04-24T23:22:05.826Z,94766.50
2023-04-24T23:24:33.719Z,94758.13
2023-04-24T23:27:01.758Z,94744.47
2023-04-24T23:29:29.706Z,94752.88
2023-04-24T23:31:57.632Z,94752.56
2023-04-24T23:34:25.680Z,94754.66
2023-04-24T23:36:55.142Z,94746.56
2023-04-24T23:39:23.356Z,94749.41
2023-04-24T23:41:53.597Z,94747.59
2023-04-24T23:44:21.508Z,94751.25
2023-04-24T23:46:49.452Z,94754.34
2023-04-24T23:49:17.417Z,94746.50
2023-04-24T23:51:45.349Z,94747.53
2023-04-24T23:54:14.751Z,94753.25
2023-04-24T23:56:42.776Z,94745.94
2023-04-24T23:59:10.698Z,94750.88
